Time;durP1;ratioP1;P1;durP2;ratioP2;P2;SDS_P1;SDS_P2;PMS_P1;PMS_P2;Temp;Humidity;BMP_temperature;BMP_pressure;BME280_temperature;BME280_humidity;BME280_pressure;Samples;Min_cycle;Max_cycle;Signal;HPM_P1;HPM_P2
2023/07/03 00:00:01;;;;;;;17.70;11.15;;;;;;;;;;5093786;28;20052;-82
2023/07/03 00:02:28;;;;;;;20.52;11.30;;;;;;;;;;5093468;28;20078;-82
2023/07/03 00:05:26;;;;;;;17.42;11.32;;;;;;;;;;5095450;28;20062;-84
2023/07/03 00:08:00;;;;;;;;;;;;;;;;;;5090233;28;20051;-82
2023/07/03 00:10:27;;;;;;;16.90;11.18;;;;;;;;;;5094672;28;19927;-83
2023/07/03 00:12:55;;;;;;;21.23;11.68;;;;;;;;;;5093563;28;20091;-81
2023/07/03 00:15:22;;;;;;;16.63;11.13;;;;;;;;;;5094282;28;20044;-81
2023/07/03 00:17:49;;;;;;;16.50;11.60;;;;;;;;;;5095254;28;20056;-83
2023/07/03 00:20:17;;;;;;;19.55;11.70;;;;;;;;;;5095388;28;20412;-82
2023/07/03 00:22:46;;;;;;;20.58;11.57;;;;;;;;;;5093776;28;20048;-84
2023/07/03 00:25:14;;;;;;;17.88;11.00;;;;;;;;;;5094817;28;20040;-82
2023/07/03 00:27:42;;;;;;;18.55;11.45;;;;;;;;;;5094943;28;20489;-82
2023/07/03 00:30:10;;;;;;;22.65;12.93;;;;;;;;;;5097238;28;20607;-82
2023/07/03 00:32:37;;;;;;;16.92;11.45;;;;;;;;;;5095627;28;20109;-83
2023/07/03 00:35:06;;;;;;;17.42;11.73;;;;;;;;;;5095160;28;20056;-82
2023/07/03 00:37:34;;;;;;;20.75;12.10;;;;;;;;;;5095072;28;20086;-82
2023/07/03 00:40:02;;;;;;;20.85;12.50;;;;;;;;;;5095271;28;20055;-82
2023/07/03 00:42:32;;;;;;;20.67;12.80;;;;;;;;;;5095239;28;20100;-82
2023/07/03 00:44:59;;;;;;;22.85;12.02;;;;;;;;;;5096014;28;20055;-81
2023/07/03 00:47:26;;;;;;;17.45;11.82;;;;;;;;;;5093710;28;20047;-81
2023/07/03 00:49:54;;;;;;;18.60;11.93;;;;;;;;;;5094252;28;20142;-82
2023/07/03 00:52:22;;;;;;;20.25;11.38;;;;;;;;;;5095265;28;20063;-82
2023/07/03 00:54:49;;;;;;;18.85;11.98;;;;;;;;;;5097702;28;20489;-82
2023/07/03 00:57:17;;;;;;;17.98;12.65;;;;;;;;;;5098073;28;20139;-82
2023/07/03 00:59:44;;;;;;;20.25;11.90;;;;;;;;;;5098486;28;20052;-82
2023/07/03 01:02:18;;;;;;;19.90;12.27;;;;;;;;;;5099351;28;20048;-82
2023/07/03 01:05:00;;;;;;;22.92;12.80;;;;;;;;;;5097721;28;20071;-82
2023/07/03 01:07:30;;;;;;;20.73;12.95;;;;;;;;;;5097993;28;20055;-83
2023/07/03 01:10:00;;;;;;;19.73;12.75;;;;;;;;;;5097994;28;20048;-82
2023/07/03 01:12:29;;;;;;;21.20;12.52;;;;;;;;;;5099723;28;20052;-84
2023/07/03 01:14:59;;;;;;;21.15;13.63;;;;;;;;;;5100329;28;20155;-82
2023/07/03 01:17:28;;;;;;;20.38;13.10;;;;;;;;;;5098948;28;20524;-84
2023/07/03 01:19:56;;;;;;;18.67;12.85;;;;;;;;;;5099283;28;20456;-82
2023/07/03 01:22:36;;;;;;;20.33;13.05;;;;;;;;;;5098772;28;20494;-82
2023/07/03 01:25:08;;;;;;;21.65;12.85;;;;;;;;;;5099153;28;20050;-81
2023/07/03 01:27:39;;;;;;;22.05;13.15;;;;;;;;;;5099543;28;20071;-82
2023/07/03 01:30:08;;;;;;;24.02;13.48;;;;;;;;;;5099696;28;20052;-82
2023/07/03 01:32:36;;;;;;;21.90;12.68;;;;;;;;;;5099703;28;20051;-82
2023/07/03 01:35:04;;;;;;;20.33;13.45;;;;;;;;;;5099915;28;20434;-83
2023/07/03 01:37:33;;;;;;;22.65;13.93;;;;;;;;;;5100275;28;20421;-83
2023/07/03 01:40:01;;;;;;;21.85;14.05;;;;;;;;;;5104598;28;20059;-82
2023/07/03 01:42:30;;;;;;;22.08;13.10;;;;;;;;;;5110317;28;20047;-82
2023/07/03 01:44:57;;;;;;;32.20;14.25;;;;;;;;;;5101891;28;20084;-83
2023/07/03 01:47:24;;;;;;;25.67;13.40;;;;;;;;;;5099312;28;20097;-84
2023/07/03 01:49:52;;;;;;;21.75;12.35;;;;;;;;;;5099305;28;20040;-82
2023/07/03 01:52:19;;;;;;;22.33;12.90;;;;;;;;;;5099717;28;20052;-82
2023/07/03 01:55:08;;;;;;;20.02;12.65;;;;;;;;;;5099769;28;20470;-84
2023/07/03 01:57:46;;;;;;;20.08;12.90;;;;;;;;;;5099582;28;20097;-84
2023/07/03 02:00:16;;;;;;;22.73;13.20;;;;;;;;;;5101500;28;20087;-84
2023/07/03 02:02:46;;;;;;;24.90;13.70;;;;;;;;;;5100151;28;20055;-83
2023/07/03 02:05:19;;;;;;;21.52;13.10;;;;;;;;;;5100913;28;20052;-83
2023/07/03 02:07:47;;;;;;;22.20;13.70;;;;;;;;;;5100185;28;20482;-82
2023/07/03 02:10:14;;;;;;;23.05;14.20;;;;;;;;;;5098336;28;20408;-82
2023/07/03 02:12:46;;;;;;;22.25;13.23;;;;;;;;;;5097817;28;20056;-84
2023/07/03 02:15:14;;;;;;;23.95;13.45;;;;;;;;;;5098403;28;20071;-82
2023/07/03 02:17:42;;;;;;;23.77;13.35;;;;;;;;;;5100183;28;20083;-81
2023/07/03 02:20:14;;;;;;;24.45;13.82;;;;;;;;;;5099206;28;20056;-82
2023/07/03 02:22:42;;;;;;;29.25;14.65;;;;;;;;;;5099087;28;20046;-83
2023/07/03 02:25:10;;;;;;;20.17;13.07;;;;;;;;;;5097424;28;20493;-82
2023/07/03 02:27:38;;;;;;;24.48;14.35;;;;;;;;;;5096274;28;20063;-81
2023/07/03 02:30:05;;;;;;;24.75;14.05;;;;;;;;;;5096623;28;20101;-82
2023/07/03 02:32:37;;;;;;;19.77;12.70;;;;;;;;;;5096799;28;20101;-81
2023/07/03 02:35:04;;;;;;;23.30;14.18;;;;;;;;;;5096628;28;20052;-82
2023/07/03 02:37:32;;;;;;;23.92;12.55;;;;;;;;;;5096344;28;20528;-81
2023/07/03 02:39:59;;;;;;;23.45;14.43;;;;;;;;;;5096517;28;20097;-81
2023/07/03 02:42:27;;;;;;;26.63;14.23;;;;;;;;;;5096149;28;20055;-83
2023/07/03 02:44:54;;;;;;;23.13;13.75;;;;;;;;;;5096484;28;20374;-81
2023/07/03 02:47:21;;;;;;;24.90;13.65;;;;;;;;;;5096686;28;20044;-82
2023/07/03 02:49:49;;;;;;;27.08;13.82;;;;;;;;;;5096896;28;20476;-82
2023/07/03 02:52:16;;;;;;;23.25;14.23;;;;;;;;;;5096932;28;20059;-82
2023/07/03 02:54:44;;;;;;;22.45;13.02;;;;;;;;;;5096757;28;20054;-81
2023/07/03 02:57:11;;;;;;;20.10;13.45;;;;;;;;;;5096924;28;20048;-81
2023/07/03 02:59:38;;;;;;;23.60;13.27;;;;;;;;;;5096236;28;20475;-81
2023/07/03 03:02:06;;;;;;;22.27;12.95;;;;;;;;;;5096805;28;20101;-82
2023/07/03 03:04:34;;;;;;;27.70;13.82;;;;;;;;;;5098233;28;20040;-82
2023/07/03 03:07:01;;;;;;;22.90;13.70;;;;;;;;;;5096567;28;20394;-83
2023/07/03 03:09:28;;;;;;;21.58;13.45;;;;;;;;;;5098520;28;20044;-82
2023/07/03 03:11:56;;;;;;;27.75;13.82;;;;;;;;;;5097589;28;20051;-81
2023/07/03 03:14:23;;;;;;;27.08;14.25;;;;;;;;;;5097556;28;20456;-83
2023/07/03 03:16:50;;;;;;;22.15;13.60;;;;;;;;;;5097603;28;20117;-85
2023/07/03 03:19:18;;;;;;;21.65;12.80;;;;;;;;;;5100722;28;20048;-85
2023/07/03 03:21:49;;;;;;;21.70;13.25;;;;;;;;;;5100566;28;20064;-84
2023/07/03 03:24:17;;;;;;;27.08;13.77;;;;;;;;;;5099459;28;20052;-84
2023/07/03 03:26:44;;;;;;;21.90;13.45;;;;;;;;;;5101094;28;20412;-84
2023/07/03 03:29:12;;;;;;;25.23;13.80;;;;;;;;;;5101048;28;20049;-85
2023/07/03 03:31:39;;;;;;;22.58;13.10;;;;;;;;;;5099106;28;20047;-84
2023/07/03 03:34:07;;;;;;;21.20;14.20;;;;;;;;;;5100023;28;20055;-84
2023/07/03 03:36:37;;;;;;;21.23;13.68;;;;;;;;;;5099419;28;20048;-84
2023/07/03 03:39:04;;;;;;;22.17;13.30;;;;;;;;;;5099705;28;20048;-85
2023/07/03 03:41:31;;;;;;;31.35;14.88;;;;;;;;;;5099786;28;20048;-85
2023/07/03 03:43:59;;;;;;;24.25;14.70;;;;;;;;;;5100079;28;20047;-85
2023/07/03 03:46:26;;;;;;;28.05;15.40;;;;;;;;;;5099715;28;20048;-84
2023/07/03 03:48:53;;;;;;;24.55;13.98;;;;;;;;;;5098273;28;20048;-84
2023/07/03 03:51:21;;;;;;;22.88;14.77;;;;;;;;;;5097277;28;20546;-84
2023/07/03 03:53:48;;;;;;;26.92;14.57;;;;;;;;;;5098330;28;20405;-84
2023/07/03 03:56:16;;;;;;;25.20;15.18;;;;;;;;;;5094219;28;20048;-83
2023/07/03 03:58:43;;;;;;;22.67;14.45;;;;;;;;;;5093918;28;20071;-84
2023/07/03 04:01:10;;;;;;;27.52;14.07;;;;;;;;;;5093689;28;20051;-84
2023/07/03 04:03:38;;;;;;;22.52;14.73;;;;;;;;;;5099851;28;20608;-84
2023/07/03 04:06:05;;;;;;;24.85;15.30;;;;;;;;;;5110796;28;20036;-83
2023/07/03 04:08:33;;;;;;;23.92;13.95;;;;;;;;;;5099968;28;20078;-84
2023/07/03 04:11:00;;;;;;;22.08;13.13;;;;;;;;;;5094690;28;20460;-84
2023/07/03 04:13:28;;;;;;;22.88;14.48;;;;;;;;;;5094367;28;20497;-84
2023/07/03 04:15:55;;;;;;;26.35;14.73;;;;;;;;;;5094226;28;20056;-84
2023/07/03 04:18:23;;;;;;;25.52;13.95;;;;;;;;;;5094143;28;20087;-83
2023/07/03 04:20:51;;;;;;;26.70;14.45;;;;;;;;;;5094578;28;20056;-82
2023/07/03 04:23:19;;;;;;;29.20;15.10;;;;;;;;;;5094513;28;20386;-83
2023/07/03 04:25:46;;;;;;;21.38;13.55;;;;;;;;;;5094279;28;20044;-84
2023/07/03 04:28:16;;;;;;;22.90;14.02;;;;;;;;;;5095697;28;20044;-83
2023/07/03 04:30:43;;;;;;;27.00;13.85;;;;;;;;;;5099246;28;20044;-84
2023/07/03 04:33:10;;;;;;;22.58;13.10;;;;;;;;;;5098537;28;20063;-84
2023/07/03 04:35:38;;;;;;;24.48;14.02;;;;;;;;;;5098094;28;20056;-83
2023/07/03 04:38:05;;;;;;;22.55;12.70;;;;;;;;;;5097543;28;20493;-84
2023/07/03 04:40:33;;;;;;;37.83;13.85;;;;;;;;;;5098080;28;20555;-84
2023/07/03 04:43:00;;;;;;;23.70;12.93;;;;;;;;;;5098657;28;20040;-84
2023/07/03 04:45:28;;;;;;;18.45;12.20;;;;;;;;;;5097335;28;20067;-84
2023/07/03 04:47:55;;;;;;;25.50;15.02;;;;;;;;;;5099977;28;20055;-83
2023/07/03 04:50:24;;;;;;;39.85;24.52;;;;;;;;;;5097722;28;20082;-83
2023/07/03 04:52:53;;;;;;;39.92;25.52;;;;;;;;;;5097860;28;20051;-83
2023/07/03 04:55:24;;;;;;;25.27;16.05;;;;;;;;;;5098895;28;20059;-84
2023/07/03 04:57:51;;;;;;;34.65;18.13;;;;;;;;;;5100568;28;20059;-84
2023/07/03 05:00:21;;;;;;;31.85;18.15;;;;;;;;;;5099948;28;20059;-84
2023/07/03 05:02:51;;;;;;;50.20;31.48;;;;;;;;;;5098638;28;20044;-84
2023/07/03 05:05:20;;;;;;;59.78;36.63;;;;;;;;;;5100033;28;20123;-83
2023/07/03 05:07:47;;;;;;;39.95;25.25;;;;;;;;;;5099127;28;20047;-83
2023/07/03 05:10:16;;;;;;;41.55;25.15;;;;;;;;;;5099339;28;20048;-84
2023/07/03 05:12:44;;;;;;;47.00;26.17;;;;;;;;;;5100957;28;20052;-84
2023/07/03 05:15:14;;;;;;;37.30;21.67;;;;;;;;;;5097541;28;20055;-83
2023/07/03 05:17:41;;;;;;;46.33;28.33;;;;;;;;;;5097081;28;20135;-83
2023/07/03 05:20:11;;;;;;;132.93;89.28;;;;;;;;;;5096804;28;20485;-83
2023/07/03 05:22:39;;;;;;;148.57;103.18;;;;;;;;;;5096133;28;20048;-84
2023/07/03 05:25:07;;;;;;;105.13;62.90;;;;;;;;;;5097995;28;20508;-83
2023/07/03 05:27:35;;;;;;;93.15;57.42;;;;;;;;;;5097041;28;20043;-83
2023/07/03 05:30:03;;;;;;;90.18;58.55;;;;;;;;;;5099145;28;20180;-83
2023/07/03 05:32:30;;;;;;;76.80;49.22;;;;;;;;;;5096871;28;20058;-83
2023/07/03 05:34:58;;;;;;;61.55;42.25;;;;;;;;;;5096062;28;20440;-83
2023/07/03 05:37:25;;;;;;;51.42;33.55;;;;;;;;;;5096234;28;20501;-83
2023/07/03 05:39:52;;;;;;;35.90;22.75;;;;;;;;;;5097430;28;20052;-83
2023/07/03 05:42:20;;;;;;;20.75;12.52;;;;;;;;;;5095916;28;20051;-84
2023/07/03 05:44:47;;;;;;;30.10;17.48;;;;;;;;;;5097891;28;20044;-84
2023/07/03 05:47:15;;;;;;;29.20;15.60;;;;;;;;;;5097985;28;20040;-83
2023/07/03 05:49:43;;;;;;;25.98;14.02;;;;;;;;;;5098284;28;20050;-84
2023/07/03 05:52:10;;;;;;;30.88;13.80;;;;;;;;;;5098678;28;20074;-84
2023/07/03 05:54:38;;;;;;;25.15;12.38;;;;;;;;;;5098017;28;20040;-83
2023/07/03 05:57:07;;;;;;;25.77;12.23;;;;;;;;;;5098954;28;20044;-84
2023/07/03 05:59:38;;;;;;;26.60;12.13;;;;;;;;;;5098419;28;20047;-84
2023/07/03 06:02:07;;;;;;;22.00;10.25;;;;;;;;;;5098885;28;20093;-83
2023/07/03 06:04:35;;;;;;;23.95;10.60;;;;;;;;;;5099210;28;20040;-84
2023/07/03 06:07:02;;;;;;;30.13;10.20;;;;;;;;;;5098932;28;20081;-84
2023/07/03 06:09:30;;;;;;;28.60;9.93;;;;;;;;;;5099632;28;20040;-84
2023/07/03 06:12:01;;;;;;;20.98;9.02;;;;;;;;;;5100008;28;20126;-84
2023/07/03 06:14:29;;;;;;;15.93;8.15;;;;;;;;;;5100310;28;20102;-85
2023/07/03 06:16:58;;;;;;;17.55;8.32;;;;;;;;;;5100061;28;20135;-84
2023/07/03 06:19:26;;;;;;;15.15;7.63;;;;;;;;;;5101799;28;20052;-85
2023/07/03 06:21:54;;;;;;;20.30;8.85;;;;;;;;;;5102310;28;20058;-85
2023/07/03 06:24:21;;;;;;;17.00;8.07;;;;;;;;;;5100977;28;20047;-84
2023/07/03 06:26:49;;;;;;;15.10;7.68;;;;;;;;;;5102180;28;20048;-85
2023/07/03 06:29:16;;;;;;;11.98;6.53;;;;;;;;;;5108187;28;20048;-84
2023/07/03 06:31:43;;;;;;;17.92;6.20;;;;;;;;;;5104700;28;20044;-83
2023/07/03 06:34:11;;;;;;;15.13;5.93;;;;;;;;;;5094010;28;20416;-84
2023/07/03 06:36:40;;;;;;;15.00;5.43;;;;;;;;;;5094945;28;20052;-85
2023/07/03 06:39:08;;;;;;;16.25;5.82;;;;;;;;;;5095098;28;20070;-83
2023/07/03 06:41:36;;;;;;;19.92;5.35;;;;;;;;;;5094847;28;20550;-84
2023/07/03 06:44:04;;;;;;;14.45;5.53;;;;;;;;;;5094427;28;20044;-86
2023/07/03 06:46:31;;;;;;;11.23;5.30;;;;;;;;;;5095508;28;20079;-85
2023/07/03 06:48:59;;;;;;;11.88;5.13;;;;;;;;;;5095068;28;20044;-84
2023/07/03 06:51:26;;;;;;;14.15;5.25;;;;;;;;;;5093473;28;20044;-85
2023/07/03 06:53:54;;;;;;;13.25;5.10;;;;;;;;;;5094443;28;20515;-85
2023/07/03 06:56:21;;;;;;;14.85;4.85;;;;;;;;;;5093820;28;20048;-85
2023/07/03 06:58:49;;;;;;;29.98;6.63;;;;;;;;;;5094596;28;20306;-84
2023/07/03 07:01:18;;;;;;;14.07;5.55;;;;;;;;;;5093803;28;20048;-84
2023/07/03 07:03:46;;;;;;;14.40;5.28;;;;;;;;;;5093236;28;20571;-85
2023/07/03 07:06:15;;;;;;;15.68;5.30;;;;;;;;;;5093974;28;20062;-83
2023/07/03 07:08:45;;;;;;;15.32;5.35;;;;;;;;;;5093824;28;20421;-84
2023/07/03 07:11:17;;;;;;;17.73;5.30;;;;;;;;;;5093630;28;20405;-84
2023/07/03 07:13:45;;;;;;;14.38;4.82;;;;;;;;;;5094708;28;20056;-83
2023/07/03 07:16:31;;;;;;;9.00;4.47;;;;;;;;;;5093483;28;20048;-87
2023/07/03 07:19:00;;;;;;;15.48;4.78;;;;;;;;;;5095237;28;20059;-84
2023/07/03 07:21:29;;;;;;;12.18;4.88;;;;;;;;;;5094958;28;20072;-85
2023/07/03 07:23:58;;;;;;;20.10;5.13;;;;;;;;;;5095566;28;20417;-82
2023/07/03 07:26:32;;;;;;;16.70;5.40;;;;;;;;;;5094538;28;20123;-87
2023/07/03 07:29:04;;;;;;;17.05;4.97;;;;;;;;;;5094602;28;20040;-82
2023/07/03 07:31:31;;;;;;;20.40;5.38;;;;;;;;;;5093992;28;20043;-80
2023/07/03 07:33:58;;;;;;;15.55;4.93;;;;;;;;;;5094363;28;20052;-82
2023/07/03 07:36:26;;;;;;;14.85;5.85;;;;;;;;;;5093572;28;20054;-79
2023/07/03 07:38:54;;;;;;;14.45;5.78;;;;;;;;;;5094488;28;20070;-79
2023/07/03 07:41:24;;;;;;;14.73;5.30;;;;;;;;;;5094156;28;20432;-82
2023/07/03 07:43:55;;;;;;;19.50;5.53;;;;;;;;;;5093822;28;20055;-81
2023/07/03 07:46:26;;;;;;;15.05;5.32;;;;;;;;;;5094080;28;20044;-79
2023/07/03 07:48:57;;;;;;;16.17;5.22;;;;;;;;;;5094838;28;20044;-83
2023/07/03 07:51:25;;;;;;;11.88;5.45;;;;;;;;;;5094606;28;20048;-79
2023/07/03 07:53:54;;;;;;;17.08;4.63;;;;;;;;;;5094379;28;20048;-81
2023/07/03 07:56:32;;;;;;;15.32;4.80;;;;;;;;;;5094085;28;20043;-80
2023/07/03 07:59:00;;;;;;;16.52;5.13;;;;;;;;;;5094309;28;20055;-80
2023/07/03 08:01:28;;;;;;;13.82;4.97;;;;;;;;;;5094573;28;20062;-80
2023/07/03 08:03:57;;;;;;;12.13;5.45;;;;;;;;;;5094320;28;20409;-82
2023/07/03 08:06:24;;;;;;;12.98;4.97;;;;;;;;;;5094511;28;20489;-81
2023/07/03 08:08:52;;;;;;;11.02;5.03;;;;;;;;;;5094072;28;20452;-80
2023/07/03 08:11:20;;;;;;;13.43;5.63;;;;;;;;;;5095991;28;20048;-81
2023/07/03 08:13:48;;;;;;;15.93;6.32;;;;;;;;;;5094415;28;20044;-81
2023/07/03 08:16:17;;;;;;;15.65;5.82;;;;;;;;;;5094559;28;20531;-82
2023/07/03 08:18:45;;;;;;;12.95;5.60;;;;;;;;;;5094834;28;20130;-80
2023/07/03 08:21:15;;;;;;;10.45;5.20;;;;;;;;;;5096458;28;20048;-82
2023/07/03 08:23:43;;;;;;;16.20;6.03;;;;;;;;;;5095421;28;20458;-78
2023/07/03 08:26:17;;;;;;;16.05;5.72;;;;;;;;;;5094746;28;20486;-81
2023/07/03 08:28:44;;;;;;;16.58;5.70;;;;;;;;;;5095731;28;20048;-79
2023/07/03 08:31:21;;;;;;;12.05;5.88;;;;;;;;;;5096262;28;20121;-82
2023/07/03 08:33:48;;;;;;;19.73;6.05;;;;;;;;;;5095638;28;20055;-80
2023/07/03 08:36:16;;;;;;;17.42;5.10;;;;;;;;;;5096136;28;20048;-80
2023/07/03 08:38:48;;;;;;;24.83;6.33;;;;;;;;;;5095842;28;20048;-80
2023/07/03 08:41:18;;;;;;;14.88;5.93;;;;;;;;;;5096070;28;20285;-80
2023/07/03 08:43:47;;;;;;;18.48;5.70;;;;;;;;;;5095634;28;20059;-80
2023/07/03 08:46:17;;;;;;;11.65;5.38;;;;;;;;;;5095612;28;20481;-80
2023/07/03 08:48:49;;;;;;;18.55;5.50;;;;;;;;;;5096443;28;20051;-83
2023/07/03 08:51:18;;;;;;;17.92;5.60;;;;;;;;;;5096448;28;20047;-83
2023/07/03 08:53:48;;;;;;;18.25;5.03;;;;;;;;;;5098216;28;20079;-82
2023/07/03 08:56:17;;;;;;;20.92;6.22;;;;;;;;;;5100278;28;20070;-80
2023/07/03 08:58:46;;;;;;;20.17;5.30;;;;;;;;;;5103092;28;20448;-81
2023/07/03 09:01:18;;;;;;;12.98;5.40;;;;;;;;;;5095033;28;20052;-80
2023/07/03 09:04:04;;;;;;;12.57;5.20;;;;;;;;;;5093492;28;20101;-80
2023/07/03 09:06:32;;;;;;;17.73;5.63;;;;;;;;;;5093344;28;20044;-80
2023/07/03 09:09:11;;;;;;;13.55;5.78;;;;;;;;;;5093306;28;20051;-80
2023/07/03 09:11:41;;;;;;;15.35;5.13;;;;;;;;;;5092667;28;20048;-81
2023/07/03 09:14:14;;;;;;;16.30;5.03;;;;;;;;;;5093844;28;20048;-78
2023/07/03 09:16:42;;;;;;;13.65;4.63;;;;;;;;;;5096508;28;20102;-76
2023/07/03 09:19:15;;;;;;;11.38;4.78;;;;;;;;;;5096367;28;20058;-82
2023/07/03 09:21:44;;;;;;;19.25;5.22;;;;;;;;;;5094749;28;20059;-82
2023/07/03 09:24:36;;;;;;;10.93;4.32;;;;;;;;;;5096239;28;20044;-81
2023/07/03 09:27:18;;;;;;;14.48;4.85;;;;;;;;;;5096248;28;20427;-80
2023/07/03 09:29:46;;;;;;;19.45;5.00;;;;;;;;;;5097832;28;20052;-80
2023/07/03 09:32:22;;;;;;;12.15;5.38;;;;;;;;;;5095862;28;20102;-80
2023/07/03 09:35:02;;;;;;;18.08;4.55;;;;;;;;;;5096583;28;20455;-80
2023/07/03 09:37:30;;;;;;;13.73;4.93;;;;;;;;;;5096082;28;20052;-80
2023/07/03 09:40:00;;;;;;;13.23;5.07;;;;;;;;;;5095959;28;20048;-79
2023/07/03 09:42:32;;;;;;;17.00;5.60;;;;;;;;;;5096025;28;20059;-79
2023/07/03 09:44:59;;;;;;;14.18;5.47;;;;;;;;;;5097554;28;20074;-81
2023/07/03 09:47:29;;;;;;;13.30;5.03;;;;;;;;;;5096905;28;20044;-81
2023/07/03 09:50:03;;;;;;;15.82;5.10;;;;;;;;;;5097331;28;20071;-80
2023/07/03 09:52:31;;;;;;;16.08;4.90;;;;;;;;;;5096301;28;20040;-81
2023/07/03 09:55:02;;;;;;;10.40;4.03;;;;;;;;;;5095754;28;20062;-81
2023/07/03 09:57:30;;;;;;;35.47;5.47;;;;;;;;;;5096370;28;20048;-80
2023/07/03 10:03:09;;;;;;;12.90;4.85;;;;;;;;;;5096989;28;20047;-80
2023/07/03 10:05:42;;;;;;;15.43;4.80;;;;;;;;;;5096872;28;20051;-78
2023/07/03 10:08:12;;;;;;;14.55;4.97;;;;;;;;;;5096728;28;20622;-80
2023/07/03 10:10:40;;;;;;;16.83;5.20;;;;;;;;;;5097232;28;20040;-79
2023/07/03 10:13:14;;;;;;;11.40;4.60;;;;;;;;;;5095829;28;20044;-80
2023/07/03 10:15:42;;;;;;;9.93;4.22;;;;;;;;;;5095963;28;20044;-80
2023/07/03 10:18:10;;;;;;;14.23;4.38;;;;;;;;;;5097209;28;20059;-80
2023/07/03 10:20:41;;;;;;;14.65;4.30;;;;;;;;;;5095672;28;20497;-80
2023/07/03 10:23:10;;;;;;;16.85;4.63;;;;;;;;;;5095948;28;20067;-81
2023/07/03 10:25:42;;;;;;;14.32;4.32;;;;;;;;;;5095329;28;20040;-80
2023/07/03 10:28:12;;;;;;;8.43;3.72;;;;;;;;;;5095958;28;20084;-79
2023/07/03 10:30:40;;;;;;;9.43;3.30;;;;;;;;;;5095602;28;20486;-81
2023/07/03 10:33:15;;;;;;;12.02;3.83;;;;;;;;;;5095570;28;20084;-82
2023/07/03 10:35:49;;;;;;;10.00;3.88;;;;;;;;;;5095659;28;20062;-81
2023/07/03 10:38:36;;;;;;;9.23;3.72;;;;;;;;;;5095714;28;20578;-81
2023/07/03 10:41:10;;;;;;;26.15;4.25;;;;;;;;;;5095969;28;20415;-87
2023/07/03 10:43:43;;;;;;;16.85;4.07;;;;;;;;;;5095727;28;20052;-80
2023/07/03 10:46:15;;;;;;;10.02;3.63;;;;;;;;;;5095117;28;20051;-81
2023/07/03 10:48:43;;;;;;;14.02;3.65;;;;;;;;;;5096890;28;20097;-80
2023/07/03 10:51:38;;;;;;;25.50;3.80;;;;;;;;;;5096406;28;20052;-81
2023/07/03 10:54:18;;;;;;;13.35;3.20;;;;;;;;;;5096875;28;20052;-82
2023/07/03 10:56:47;;;;;;;8.20;3.20;;;;;;;;;;5095877;28;20456;-80
2023/07/03 10:59:22;;;;;;;9.20;2.92;;;;;;;;;;5097569;28;20051;-81
2023/07/03 11:02:05;;;;;;;21.63;3.85;;;;;;;;;;5096429;28;20069;-80
2023/07/03 11:04:36;;;;;;;14.32;3.65;;;;;;;;;;5097026;28;20105;-82
2023/07/03 11:07:12;;;;;;;6.53;2.97;;;;;;;;;;5096821;28;20040;-80
2023/07/03 11:09:39;;;;;;;8.90;2.65;;;;;;;;;;5097223;28;20052;-81
2023/07/03 11:12:13;;;;;;;12.52;3.35;;;;;;;;;;5096750;28;20055;-81
2023/07/03 11:14:59;;;;;;;9.07;2.55;;;;;;;;;;5096950;28;20048;-81
2023/07/03 11:17:45;;;;;;;7.78;2.50;;;;;;;;;;5097993;28;20067;-82
2023/07/03 11:20:22;;;;;;;7.78;3.00;;;;;;;;;;5097375;28;20063;-82
2023/07/03 11:23:01;;;;;;;10.23;3.00;;;;;;;;;;5098612;28;20066;-82
2023/07/03 11:25:32;;;;;;;8.32;2.38;;;;;;;;;;5100439;28;20066;-80
2023/07/03 11:28:08;;;;;;;9.25;2.75;;;;;;;;;;5098210;28;20459;-81
2023/07/03 11:30:42;;;;;;;7.68;2.75;;;;;;;;;;5093942;28;20055;-81
2023/07/03 11:33:09;;;;;;;;;;;;;;;;;;5093845;28;20789;-79
2023/07/03 11:35:36;;;;;;;18.60;2.67;;;;;;;;;;5094312;28;19921;-81
2023/07/03 11:38:10;;;;;;;8.07;2.55;;;;;;;;;;5093297;28;20105;-83
2023/07/03 11:41:01;;;;;;;10.55;3.08;;;;;;;;;;5094035;28;20097;-83
2023/07/03 11:43:47;;;;;;;8.02;2.38;;;;;;;;;;5104816;28;20047;-82
2023/07/03 11:46:26;;;;;;;20.70;3.05;;;;;;;;;;5108974;28;20054;-83
2023/07/03 11:48:57;;;;;;;9.40;2.65;;;;;;;;;;5109539;28;20044;-82
2023/07/03 11:51:38;;;;;;;7.28;2.25;;;;;;;;;;5095110;28;20105;-82
2023/07/03 11:54:22;;;;;;;7.95;2.65;;;;;;;;;;5094028;28;20051;-87
2023/07/03 11:56:53;;;;;;;15.90;2.80;;;;;;;;;;5094490;28;20077;-84
2023/07/03 11:59:24;;;;;;;15.07;3.45;;;;;;;;;;5093668;28;20072;-80
2023/07/03 12:01:53;;;;;;;7.28;2.40;;;;;;;;;;5094862;28;20493;-83
2023/07/03 12:04:39;;;;;;;8.93;2.38;;;;;;;;;;5093630;28;20404;-84
2023/07/03 12:07:30;;;;;;;12.35;2.70;;;;;;;;;;5093343;28;20040;-83
2023/07/03 12:10:18;;;;;;;9.10;2.58;;;;;;;;;;5093345;28;20052;-82
2023/07/03 12:13:05;;;;;;;9.93;2.60;;;;;;;;;;5079568;28;20405;-83
2023/07/03 12:15:32;;;;;;;9.02;2.28;;;;;;;;;;5092997;28;20074;-83
2023/07/03 12:18:03;;;;;;;5.78;2.45;;;;;;;;;;5095584;28;20043;-82
2023/07/03 12:20:31;;;;;;;6.50;2.42;;;;;;;;;;5094186;28;20048;-82
2023/07/03 12:22:58;;;;;;;12.80;2.83;;;;;;;;;;5093584;28;20063;-83
2023/07/03 12:25:27;;;;;;;18.20;2.90;;;;;;;;;;5092616;28;20047;-84
2023/07/03 12:27:56;;;;;;;9.98;2.83;;;;;;;;;;5092848;28;20052;-83
2023/07/03 12:30:30;;;;;;;14.10;3.05;;;;;;;;;;5094186;28;20071;-83
2023/07/03 12:32:59;;;;;;;11.23;2.75;;;;;;;;;;5094511;28;20413;-82
2023/07/03 12:35:28;;;;;;;8.32;2.40;;;;;;;;;;5096414;28;20094;-82
2023/07/03 12:37:56;;;;;;;8.57;2.58;;;;;;;;;;5094155;28;20458;-85
2023/07/03 12:40:24;;;;;;;6.30;2.72;;;;;;;;;;5094936;28;20048;-82
2023/07/03 12:42:53;;;;;;;12.02;3.08;;;;;;;;;;5093800;28;20509;-82
2023/07/03 12:45:20;;;;;;;9.00;2.25;;;;;;;;;;5094271;28;20051;-84
2023/07/03 12:48:07;;;;;;;7.75;2.83;;;;;;;;;;5094468;28;20048;-83
2023/07/03 12:50:46;;;;;;;6.05;2.65;;;;;;;;;;5098768;28;20127;-84
2023/07/03 12:53:14;;;;;;;6.72;2.60;;;;;;;;;;5099063;28;20513;-82
2023/07/03 12:55:43;;;;;;;9.45;2.75;;;;;;;;;;5099740;28;20070;-84
2023/07/03 12:58:11;;;;;;;8.98;3.13;;;;;;;;;;5099472;28;20052;-83
2023/07/03 13:00:39;;;;;;;9.02;2.38;;;;;;;;;;5099980;28;20052;-83
2023/07/03 13:03:07;;;;;;;9.68;2.42;;;;;;;;;;5100502;28;20047;-84
2023/07/03 13:05:36;;;;;;;6.32;2.67;;;;;;;;;;5101412;28;20056;-84
2023/07/03 13:08:06;;;;;;;5.10;2.40;;;;;;;;;;5102153;28;20075;-84
2023/07/03 13:10:34;;;;;;;7.47;2.55;;;;;;;;;;5101287;28;20098;-83
2023/07/03 13:13:12;;;;;;;8.13;3.05;;;;;;;;;;5101007;28;20101;-82
2023/07/03 13:15:41;;;;;;;7.35;2.60;;;;;;;;;;5100246;28;20051;-84
2023/07/03 13:18:14;;;;;;;6.85;2.50;;;;;;;;;;5102435;28;20113;-83
2023/07/03 13:20:58;;;;;;;10.77;2.65;;;;;;;;;;5101428;28;20044;-82
2023/07/03 13:23:26;;;;;;;;;;;;;;;;;;5102832;28;20055;-82
2023/07/03 13:25:54;;;;;;;6.18;2.60;;;;;;;;;;5101645;28;20536;-84
2023/07/03 13:28:24;;;;;;;4.22;2.28;;;;;;;;;;5101583;28;20044;-83
2023/07/03 13:31:11;;;;;;;8.88;2.53;;;;;;;;;;5103036;28;20390;-84
2023/07/03 13:33:43;;;;;;;6.72;2.35;;;;;;;;;;5102649;28;20085;-84
2023/07/03 13:36:28;;;;;;;8.10;2.78;;;;;;;;;;5102746;28;20075;-84
2023/07/03 13:39:07;;;;;;;7.97;2.25;;;;;;;;;;5104544;28;20058;-81
2023/07/03 13:41:34;;;;;;;5.05;2.20;;;;;;;;;;5105422;28;20134;-84
2023/07/03 13:44:06;;;;;;;5.97;2.42;;;;;;;;;;5104693;28;20052;-82
2023/07/03 13:46:34;;;;;;;5.18;2.28;;;;;;;;;;5102759;28;20040;-84
2023/07/03 13:49:01;;;;;;;6.07;2.40;;;;;;;;;;5105792;28;20113;-83
2023/07/03 13:51:29;;;;;;;5.32;2.00;;;;;;;;;;5109596;28;20052;-84
2023/07/03 13:53:58;;;;;;;7.65;2.92;;;;;;;;;;5100934;28;20048;-83
2023/07/03 13:56:38;;;;;;;4.30;1.85;;;;;;;;;;5097465;28;20138;-83
2023/07/03 13:59:09;;;;;;;4.80;2.25;;;;;;;;;;5097321;28;20048;-81
2023/07/03 14:01:37;;;;;;;8.30;2.42;;;;;;;;;;5095824;28;20097;-84
2023/07/03 14:04:05;;;;;;;4.72;2.25;;;;;;;;;;5095543;28;20055;-82
2023/07/03 14:06:33;;;;;;;5.50;2.60;;;;;;;;;;5095849;28;20052;-84
2023/07/03 14:09:00;;;;;;;7.05;2.33;;;;;;;;;;5096078;28;20089;-85
2023/07/03 14:11:28;;;;;;;5.95;2.40;;;;;;;;;;5096328;28;21690;-82
2023/07/03 14:13:55;;;;;;;5.25;2.45;;;;;;;;;;5096294;28;20093;-83
2023/07/03 14:16:24;;;;;;;3.53;1.88;;;;;;;;;;5095692;28;20073;-85
2023/07/03 14:18:52;;;;;;;4.60;1.90;;;;;;;;;;5095653;28;20062;-83
2023/07/03 14:21:22;;;;;;;4.63;2.25;;;;;;;;;;5100173;28;20398;-82
2023/07/03 14:23:50;;;;;;;5.82;2.30;;;;;;;;;;5099295;28;20433;-84
2023/07/03 14:26:18;;;;;;;10.23;2.60;;;;;;;;;;5100184;28;20142;-82
2023/07/03 14:28:45;;;;;;;5.50;2.30;;;;;;;;;;5098363;28;20505;-81
2023/07/03 14:31:14;;;;;;;6.00;2.28;;;;;;;;;;5097289;28;20060;-80
2023/07/03 14:33:42;;;;;;;6.07;2.47;;;;;;;;;;5097490;28;20131;-81
2023/07/03 14:36:10;;;;;;;4.55;1.77;;;;;;;;;;5096689;28;20115;-82
2023/07/03 14:38:39;;;;;;;14.00;2.75;;;;;;;;;;5097052;28;20409;-83
2023/07/03 14:41:06;;;;;;;4.32;2.30;;;;;;;;;;5098168;28;20494;-81
2023/07/03 14:43:34;;;;;;;4.05;2.15;;;;;;;;;;5097330;28;20052;-80
2023/07/03 14:46:01;;;;;;;8.38;1.90;;;;;;;;;;5097817;28;20527;-81
2023/07/03 14:48:29;;;;;;;7.32;2.15;;;;;;;;;;5100007;28;20050;-79